SBCZ/CZS METAR and TAF weather

Enter ICAO airport designator
Station Type Date Time Source
SBCZ METAR 2021/09/26 22:00 UTC NOAA

SBCZ 262200Z 06003KT 9999 SCT030 31/24 Q1012


Station Type Date Time Source
SBCZ Decoded METAR 2021/09/26 22:00 UTC NOAA

Cruzeiro Do Sul, Brazil (SBCZ) 07-38S 072-40W
Sep 26, 2021 - 06:00 PM EDT / 2021.09.26 2200 UTC
Wind: from the ENE (060 degrees) at 3 MPH (3 KT):0
Visibility: greater than 7 mile(s):0
Sky conditions: partly cloudy
Temperature: 87 F (31 C)
Heat index: 95.7 F (35.4 C):1
Dew Point: 75 F (24 C)
Relative Humidity: 66%
Pressure (altimeter): 29.88 in. Hg (1012 hPa)
ob: SBCZ 262200Z 06003KT 9999 SCT030 31/24 Q1012
cycle: 22

Station Type Date Time Source
SBCZ TAF 2021/09/27 06:03 UTC NOAA

TAF TAF SBCZ 270233Z 2706/2806 33005KT 9999 SCT015 TN23/2711Z TX33/2719Z
BECMG 2717/2719 09005KT
RMK PHI

Example: see airport list